Falls City, NE (68355)

11:35 PM CDT on September 01, 2014 (GMT -0500)
Brenner | Change Station
CLOSE
Current Station
Airport
Location: Falls City,
Elevation: 984 ft
Nearby Weather Stations

Elev 984 ft 40.08 °N, 95.59 °W | Updated 42 minutes ago

Clear
Clear
65 °F
Feels Like 65 °F
N
0
Wind Variable Wind from North

Today
High -- | Low -- °F
--% Chance of Precip.
Yesterday
High -- | Low -- °F
Precip. -- in
6:50 AM 7:53 PM
Waxing Crescent, 47% visible
Pressure 29.87 in
Visibility 10.0 miles
Clouds Clear
Dew Point 63 °F
Humidity 93%
Rainfall 0.07 in
Snow Depth Not available.
UV 0 out of 12
Pollen 6.00 out of 12
Air Quality Not available.
Flu Activity Not available.
METAR KFNB 020353Z AUTO 00000KT 10SM CLR 18/17 A2989 RMK AO2 SLP114 T01830172

More Conditions Fewer Conditions

Pressure 29.87 in
Visibility 10.0 miles
Clouds Clear
Dew Point 63 °F
Humidity 93%
Rainfall 0.07 in
Snow Depth Not available.
UV 0 out of 12
Pollen 6.00 out of 12
Air Quality Not available.
Flu Activity Not available.
METAR KFNB 020353Z AUTO 00000KT 10SM CLR 18/17 A2989 RMK AO2 SLP114 T01830172

More Conditions Fewer Conditions

10-Day Weather Forecast

Almanac

Astronomy

Sep. 01, 2014 Rise Set
Actual Time 6:50 AM CDT 7:53 PM CDT
Civil Twilight 6:22 AM CDT 8:21 PM CDT
Nautical Twilight 5:49 AM CDT 8:54 PM CDT
Astronomical Twilight 5:14 AM CDT 9:29 PM CDT
Moon 1:36 PM CDT (9/1) 11:55 PM CDT (9/1)
Length of Visible Light 13h 59m
Length of Day
13h 03m
Tomorrow will be 2m 32s shorter.
Waxing Crescent, 47% of the Moon is Illuminated
Sep 2
Waxing Crescent
Sep 2
First Quarter
Sep 8
Full
Sep 15
Last Quarter
Sep 24
New

Today's Extremes

State Highs State Lows

Community

WunderPhotos

Upload Photos

1,749,566 photos uploaded!

WunderBlogs® & News

Nearby

Snow Depth

Station Depth Elevation
No new snow has been reported.

Earthquake Activity

City Distance Mag. Time & Date
No recent earthquake activity has been reported nearby.
Minimum magnitude displayed is 2.5.

Coastal Water Temperatures

Place Temperature
No Stations Reporting

Nearby Weather Stations